Time;durP1;ratioP1;P1;durP2;ratioP2;P2;SDS_P1;SDS_P2;PMS_P1;PMS_P2;Temp;Humidity;BMP_temperature;BMP_pressure;BME280_temperature;BME280_humidity;BME280_pressure;Samples;Min_cycle;Max_cycle;Signal;HPM_P1;HPM_P2
2021/04/21 00:00:19;;;;;;;13.52;11.77;;;;;;;9.88;59.98;100629.56;4995128;28;20370;-66
2021/04/21 00:02:48;;;;;;;14.48;12.98;;;;;;;10.93;56.41;100631.31;4978638;28;20489;-66
2021/04/21 00:05:14;;;;;;;17.30;13.40;;;;;;;10.89;56.42;100627.84;4992341;28;20029;-66
2021/04/21 00:07:39;;;;;;;15.63;13.48;;;;;;;10.94;55.96;100626.91;4986611;28;20081;-65
2021/04/21 00:10:10;;;;;;;14.48;12.98;;;;;;;11.37;54.60;100626.38;4962560;28;20030;-66
2021/04/21 00:12:36;;;;;;;15.63;13.15;;;;;;;11.40;54.09;100617.53;4990846;28;20064;-66
2021/04/21 00:15:05;;;;;;;15.27;12.65;;;;;;;11.04;54.33;100623.28;4978269;28;20057;-66
2021/04/21 00:17:30;;;;;;;15.43;13.82;;;;;;;10.74;55.66;100618.31;4996754;28;20022;-66
2021/04/21 00:19:57;;;;;;;13.70;12.32;;;;;;;10.97;53.98;100625.09;4960803;28;20026;-66
2021/04/21 00:22:24;;;;;;;14.15;12.38;;;;;;;10.84;54.84;100619.09;4977023;28;20030;-65
2021/04/21 00:24:51;;;;;;;13.07;11.73;;;;;;;10.59;55.43;100622.00;4979690;28;20403;-66
2021/04/21 00:27:24;;;;;;;12.60;10.95;;;;;;;10.47;54.92;100622.97;4975590;28;20038;-65
2021/04/21 00:29:51;;;;;;;14.57;11.88;;;;;;;9.93;57.54;100620.75;4995871;28;20052;-65
2021/04/21 00:32:18;;;;;;;14.45;12.63;;;;;;;10.23;56.32;100621.41;4995910;28;20029;-66
2021/04/21 00:34:44;;;;;;;13.82;12.40;;;;;;;10.31;55.36;100619.59;4995875;28;20033;-66
2021/04/21 00:37:10;;;;;;;18.15;14.15;;;;;;;10.06;56.03;100609.25;4977854;28;20516;-66
2021/04/21 00:39:36;;;;;;;15.27;13.48;;;;;;;10.18;56.45;100617.94;4995394;28;20116;-65
2021/04/21 00:42:21;;;;;;;16.38;14.50;;;;;;;10.27;56.10;100618.75;4994641;28;20068;-66
2021/04/21 00:44:58;;;;;;;19.55;13.95;;;;;;;8.61;61.15;100609.97;4993038;28;20026;-65
2021/04/21 00:47:47;;;;;;;14.25;12.63;;;;;;;8.70;61.12;100619.56;4994667;28;20041;-65
2021/04/21 00:50:21;;;;;;;15.43;13.38;;;;;;;8.38;62.77;100621.34;5012399;28;20041;-64
2021/04/21 00:52:58;;;;;;;14.23;12.57;;;;;;;8.92;60.71;100619.53;4978918;28;20045;-66
2021/04/21 00:55:51;;;;;;;14.10;12.43;;;;;;;9.16;59.56;100615.03;4995434;28;20092;-66
2021/04/21 00:58:26;;;;;;;17.25;12.70;;;;;;;8.84;60.29;100617.78;4989722;28;20026;-65
2021/04/21 01:00:53;;;;;;;15.00;13.43;;;;;;;8.50;62.53;100612.56;4981019;28;20030;-66
2021/04/21 01:03:21;;;;;;;15.75;14.13;;;;;;;8.56;63.92;100606.47;4985965;28;20056;-66
2021/04/21 01:06:02;;;;;;;16.00;14.30;;;;;;;8.38;64.09;100600.34;5013074;28;20110;-65
2021/04/21 01:08:38;;;;;;;15.93;14.23;;;;;;;7.91;64.92;100609.97;4987540;28;20120;-65
2021/04/21 01:11:10;;;;;;;17.73;13.65;;;;;;;8.04;64.89;100595.94;4993102;28;20029;-66
2021/04/21 01:13:39;;;;;;;18.30;14.50;;;;;;;8.31;63.43;100602.06;4995021;28;20404;-65
2021/04/21 01:16:05;;;;;;;15.55;13.35;;;;;;;7.79;64.84;100601.22;4994666;28;20362;-66
2021/04/21 01:18:31;;;;;;;19.65;14.57;;;;;;;8.08;64.25;100595.06;4971202;28;20026;-65
2021/04/21 01:21:20;;;;;;;15.50;13.80;;;;;;;7.88;64.55;100594.19;4976505;28;20033;-66
2021/04/21 01:24:09;;;;;;;19.05;14.90;;;;;;;7.68;64.82;100600.31;4976053;28;20492;-66
2021/04/21 01:26:45;;;;;;;16.83;13.73;;;;;;;8.12;63.47;100597.72;4959413;28;20053;-65
2021/04/21 01:29:13;;;;;;;15.57;13.95;;;;;;;7.81;64.06;100593.34;4979392;28;20389;-65
2021/04/21 01:31:39;;;;;;;16.52;14.82;;;;;;;8.06;64.18;100596.84;4993112;28;20032;-66
2021/04/21 01:34:05;;;;;;;18.10;14.10;;;;;;;7.65;65.17;100602.94;4978598;28;20030;-66
2021/04/21 01:36:32;;;;;;;15.70;13.88;;;;;;;7.55;66.69;100596.78;4985333;28;20026;-66
2021/04/21 01:38:59;;;;;;;18.05;13.82;;;;;;;7.72;66.27;100588.06;5008606;28;20478;-66
2021/04/21 01:41:26;;;;;;;17.27;13.95;;;;;;;7.95;65.81;100590.72;4994853;28;20392;-66
2021/04/21 01:44:03;;;;;;;15.98;14.30;;;;;;;7.48;66.32;100595.00;4985489;28;20041;-66
2021/04/21 01:46:38;;;;;;;18.25;14.60;;;;;;;6.92;67.96;100595.69;4994580;28;20037;-65
2021/04/21 01:49:30;;;;;;;17.95;15.30;;;;;;;7.08;67.87;100601.00;5005639;28;20034;-65
2021/04/21 01:52:02;;;;;;;18.10;15.85;;;;;;;7.50;68.01;100598.53;5001803;28;21337;-66
2021/04/21 01:54:28;;;;;;;17.17;14.82;;;;;;;7.74;65.50;100605.56;4977639;28;20021;-65
2021/04/21 01:57:12;;;;;;;18.60;14.40;;;;;;;7.35;67.04;100599.34;4992860;28;20027;-66
2021/04/21 01:59:47;;;;;;;18.15;14.45;;;;;;;6.65;68.99;100606.06;4989315;28;20076;-65
2021/04/21 02:02:18;;;;;;;17.27;14.15;;;;;;;7.03;68.27;100609.72;4965557;28;20104;-65
2021/04/21 02:05:03;;;;;;;19.65;16.00;;;;;;;7.38;67.02;100604.63;5011503;28;20026;-66
2021/04/21 02:07:59;;;;;;;16.85;14.18;;;;;;;7.40;65.78;100600.25;4972209;28;20408;-65
2021/04/21 02:10:46;;;;;;;16.42;14.65;;;;;;;7.76;65.30;100609.06;4976153;28;20500;-65
2021/04/21 02:13:17;;;;;;;17.15;15.18;;;;;;;7.34;67.21;100602.84;4988619;28;20148;-66
2021/04/21 02:16:04;;;;;;;18.13;15.15;;;;;;;7.22;66.90;100609.81;4993657;28;20026;-66
2021/04/21 02:18:50;;;;;;;20.02;16.05;;;;;;;6.92;68.23;100603.56;4998730;28;20022;-66
2021/04/21 02:21:30;;;;;;;16.27;14.57;;;;;;;7.38;66.23;100597.63;4981675;28;20440;-65
2021/04/21 02:24:08;;;;;;;17.13;15.38;;;;;;;7.38;67.14;100597.63;4993490;28;20106;-66
2021/04/21 02:26:38;;;;;;;20.38;16.48;;;;;;;7.53;66.48;100604.66;4975509;28;20042;-65
2021/04/21 02:29:15;;;;;;;21.65;17.40;;;;;;;7.53;65.50;100596.78;4964299;28;20370;-65
2021/04/21 02:31:52;;;;;;;20.90;17.13;;;;;;;7.56;67.66;100604.66;4975195;28;20022;-65
2021/04/21 02:34:34;;;;;;;16.15;14.45;;;;;;;7.82;65.52;100590.72;4975835;28;20113;-65
2021/04/21 02:37:21;;;;;;;17.90;13.00;;;;;;;8.71;61.50;100597.69;4963984;28;20098;-65
2021/04/21 02:40:04;;;;;;;15.45;13.73;;;;;;;7.77;64.06;100597.69;4980162;28;20014;-66
2021/04/21 02:42:46;;;;;;;21.20;16.35;;;;;;;7.27;66.16;100594.94;4992673;28;20029;-66
2021/04/21 02:45:30;;;;;;;19.73;15.82;;;;;;;7.47;66.01;100593.28;4989210;28;20045;-65
2021/04/21 02:48:03;;;;;;;18.13;15.93;;;;;;;7.69;64.66;100596.81;4988787;28;20524;-66
2021/04/21 02:50:42;;;;;;;19.73;15.52;;;;;;;7.46;66.17;100605.50;4979428;28;20452;-65
2021/04/21 02:53:28;;;;;;;17.25;15.55;;;;;;;7.69;66.64;100599.44;4992598;28;20034;-66
2021/04/21 02:56:15;;;;;;;19.67;17.08;;;;;;;7.22;65.53;100601.06;4975912;28;20448;-65
2021/04/21 02:59:18;;;;;;;16.35;14.65;;;;;;;6.93;67.07;100605.31;4992344;28;20030;-65
2021/04/21 03:02:02;;;;;;;18.35;14.27;;;;;;;7.36;65.45;100601.09;4925824;29;20040;-65
2021/04/21 03:04:35;;;;;;;19.10;14.38;;;;;;;7.17;67.35;100601.91;4913587;29;20039;-65
2021/04/21 03:07:03;;;;;;;16.98;14.43;;;;;;;7.55;65.44;100608.16;4961090;28;20600;-65
2021/04/21 03:09:40;;;;;;;14.95;13.35;;;;;;;7.08;67.05;100614.13;4994333;28;20374;-65
2021/04/21 03:12:06;;;;;;;15.98;13.80;;;;;;;7.09;66.07;100603.63;4960918;28;20085;-65
2021/04/21 03:14:33;;;;;;;17.80;14.73;;;;;;;6.87;66.71;100615.78;4974761;28;20038;-65
2021/04/21 03:17:05;;;;;;;18.08;14.15;;;;;;;6.86;67.07;100611.38;4976829;28;20030;-65
2021/04/21 03:19:34;;;;;;;17.23;15.02;;;;;;;7.01;67.56;100605.34;4996377;28;20401;-65
2021/04/21 03:22:04;;;;;;;15.23;12.88;;;;;;;8.08;63.68;100607.34;4979035;28;20057;-65
2021/04/21 03:24:32;;;;;;;16.05;13.32;;;;;;;7.74;64.02;100618.69;4994326;28;20034;-66
2021/04/21 03:27:02;;;;;;;15.73;12.95;;;;;;;7.62;63.86;100609.06;4982236;28;20061;-66
2021/04/21 03:29:32;;;;;;;17.10;14.10;;;;;;;6.89;66.53;100601.81;4991770;28;20025;-65
2021/04/21 03:32:00;;;;;;;16.55;14.00;;;;;;;6.70;68.24;100611.28;4975790;28;20108;-65
2021/04/21 03:34:27;;;;;;;17.95;14.95;;;;;;;6.80;66.15;100606.97;4996625;28;20029;-65
2021/04/21 03:36:53;;;;;;;16.50;13.85;;;;;;;7.27;65.26;100605.44;4994631;28;20029;-65
2021/04/21 03:39:18;;;;;;;14.45;12.30;;;;;;;7.51;64.54;100602.91;4994182;28;20017;-65
2021/04/21 03:41:44;;;;;;;17.17;12.68;;;;;;;8.18;61.54;100600.34;4991986;28;20030;-65
2021/04/21 03:44:11;;;;;;;17.08;12.85;;;;;;;7.99;61.35;100602.09;4996446;28;20036;-66
2021/04/21 03:46:36;;;;;;;13.75;11.77;;;;;;;7.64;61.69;100601.19;4988172;28;20038;-65
2021/04/21 03:49:02;;;;;;;17.20;13.25;;;;;;;7.01;64.55;100606.22;4979500;28;20034;-65
2021/04/21 03:51:28;;;;;;;15.98;14.18;;;;;;;6.91;65.52;100601.81;4995363;28;20037;-66
2021/04/21 03:53:54;;;;;;;17.25;15.27;;;;;;;6.51;66.50;100605.09;4977996;28;20018;-65
2021/04/21 03:56:26;;;;;;;15.00;13.43;;;;;;;6.31;67.07;100618.03;4979982;28;20033;-65
2021/04/21 03:58:54;;;;;;;15.90;14.20;;;;;;;6.14;69.76;100610.94;4996732;28;20034;-65
2021/04/21 04:01:23;;;;;;;18.98;14.18;;;;;;;7.03;65.31;100598.34;4992503;28;20025;-66
2021/04/21 04:03:58;;;;;;;15.75;12.75;;;;;;;7.27;63.61;100608.06;4993845;28;20118;-66
2021/04/21 04:06:26;;;;;;;19.65;13.95;;;;;;;6.36;66.87;100613.69;4985398;28;20030;-65
2021/04/21 04:08:57;;;;;;;16.30;13.77;;;;;;;6.44;66.81;100617.28;4993035;28;20021;-65
2021/04/21 04:11:25;;;;;;;16.30;12.95;;;;;;;7.21;65.04;100610.69;4991829;28;20018;-65
2021/04/21 04:13:55;;;;;;;17.27;13.43;;;;;;;7.54;63.42;100618.66;5007051;28;20485;-66
2021/04/21 04:16:22;;;;;;;16.73;13.45;;;;;;;7.40;63.15;100613.38;4983077;28;20493;-65
2021/04/21 04:18:48;;;;;;;15.80;14.15;;;;;;;8.21;60.80;100614.34;4974999;28;20034;-65
2021/04/21 04:21:14;;;;;;;17.20;13.25;;;;;;;7.37;61.85;100618.63;4977242;28;20018;-65
2021/04/21 04:23:41;;;;;;;15.13;12.00;;;;;;;7.18;62.20;100619.41;4977080;28;20129;-65
2021/04/21 04:26:08;;;;;;;17.90;13.23;;;;;;;8.38;60.32;100628.34;4985842;28;20048;-66
2021/04/21 04:28:34;;;;;;;15.27;13.13;;;;;;;7.79;62.05;100623.94;4987643;28;20022;-66
2021/04/21 04:31:01;;;;;;;17.30;14.93;;;;;;;7.40;62.63;100629.13;5002178;28;20531;-66
2021/04/21 04:33:28;;;;;;;16.25;13.07;;;;;;;7.79;63.00;100631.81;4994606;28;20379;-66
2021/04/21 04:35:53;;;;;;;16.90;13.65;;;;;;;8.70;58.59;100633.59;4983837;28;20044;-66
2021/04/21 04:38:19;;;;;;;15.23;13.63;;;;;;;9.02;56.27;100634.41;4996282;28;20120;-66
2021/04/21 04:40:45;;;;;;;17.88;13.55;;;;;;;8.06;60.91;100633.63;5010101;28;20100;-66
2021/04/21 04:43:10;;;;;;;16.17;13.63;;;;;;;7.93;61.35;100639.72;4997815;28;20124;-66
2021/04/21 04:45:38;;;;;;;19.90;14.18;;;;;;;7.04;63.53;100645.56;4983136;28;20026;-66
2021/04/21 04:48:04;;;;;;;17.25;13.48;;;;;;;7.51;63.39;100645.78;4980092;28;20019;-66
2021/04/21 04:50:31;;;;;;;17.58;12.98;;;;;;;8.81;58.01;100641.47;4979149;28;20057;-66
2021/04/21 04:52:57;;;;;;;15.68;11.68;;;;;;;8.07;59.31;100638.00;4991832;28;20085;-66
2021/04/21 04:55:24;;;;;;;13.55;11.45;;;;;;;8.08;60.87;100644.13;4995684;28;20029;-66
2021/04/21 04:57:51;;;;;;;17.38;12.88;;;;;;;8.49;59.64;100639.75;4993241;28;20084;-66
2021/04/21 05:00:25;;;;;;;16.67;13.30;;;;;;;7.66;61.58;100650.19;5008095;28;20401;-66
2021/04/21 05:03:26;;;;;;;16.77;13.18;;;;;;;7.28;62.72;100662.31;4995974;28;20025;-66
2021/04/21 05:05:55;;;;;;;17.98;14.93;;;;;;;7.34;64.67;100650.09;5005984;28;20057;-66
2021/04/21 05:08:23;;;;;;;14.95;12.60;;;;;;;9.17;59.19;100651.88;5013118;28;20070;-66
2021/04/21 05:10:55;;;;;;;13.30;11.80;;;;;;;9.56;56.61;100656.09;4962085;28;20581;-66
2021/04/21 05:13:22;;;;;;;15.80;11.48;;;;;;;9.28;57.74;100661.50;4976155;28;20052;-66
2021/04/21 05:16:10;;;;;;;14.32;12.15;;;;;;;9.23;57.09;100659.75;4975801;28;20026;-66
2021/04/21 05:19:18;;;;;;;16.02;13.23;;;;;;;10.14;54.71;100660.13;4993304;28;20124;-66
2021/04/21 05:22:21;;;;;;;16.10;13.55;;;;;;;10.28;55.55;100667.06;4915316;28;20034;-66
2021/04/21 05:25:05;;;;;;;15.77;12.35;;;;;;;10.16;56.92;100672.41;5007874;28;20084;-66
2021/04/21 05:27:58;;;;;;;22.15;14.77;;;;;;;9.62;57.39;100661.34;5003718;28;20080;-66
2021/04/21 05:30:52;;;;;;;17.23;15.43;;;;;;;10.46;55.46;100675.72;4977431;28;20477;-66
2021/04/21 05:33:45;;;;;;;16.08;12.77;;;;;;;10.21;56.19;100670.63;4995170;28;20404;-66
2021/04/21 05:36:52;;;;;;;22.30;15.65;;;;;;;10.44;55.89;100673.06;4984229;28;20018;-66
2021/04/21 05:39:29;;;;;;;16.90;14.57;;;;;;;9.62;59.33;100670.13;4991460;28;20018;-66
2021/04/21 05:42:46;;;;;;;16.42;13.63;;;;;;;9.93;57.63;100673.44;4990611;28;20025;-66
2021/04/21 05:45:41;;;;;;;16.08;13.05;;;;;;;8.60;63.03;100674.81;5012037;28;20395;-66
2021/04/21 05:48:32;;;;;;;13.98;12.48;;;;;;;8.93;62.04;100671.25;4994870;28;20033;-66
2021/04/21 05:51:39;;;;;;;14.10;11.35;;;;;;;9.11;62.22;100672.97;4995007;28;20037;-66
2021/04/21 05:54:38;;;;;;;12.98;11.65;;;;;;;12.03;54.53;100668.63;4994246;28;20029;-66
2021/04/21 05:57:42;;;;;;;11.15;9.60;;;;;;;14.03;48.26;100674.56;5012014;28;20026;-67
2021/04/21 06:00:29;;;;;;;12.65;11.13;;;;;;;12.82;52.41;100679.69;5012241;28;20052;-66
2021/04/21 06:02:54;;;;;;;14.18;9.05;;;;;;;14.40;47.84;100681.66;5012335;28;20029;-67
2021/04/21 06:05:20;;;;;;;10.43;9.30;;;;;;;12.66;52.49;100679.09;4994644;28;20071;-67
2021/04/21 06:07:45;;;;;;;10.27;9.23;;;;;;;16.35;44.88;100680.59;4994673;28;20069;-67
2021/04/21 06:10:29;;;;;;;9.98;8.95;;;;;;;15.45;45.84;100679.78;4976971;28;20105;-67
2021/04/21 06:13:01;;;;;;;12.95;8.05;;;;;;;14.39;48.39;100679.91;4975103;28;20030;-67
2021/04/21 06:15:28;;;;;;;9.93;8.88;;;;;;;19.00;40.47;100673.16;4975270;28;20030;-67
2021/04/21 06:17:59;;;;;;;12.23;9.18;;;;;;;18.68;39.85;100678.13;4992670;28;20044;-67
2021/04/21 06:20:32;;;;;;;10.43;8.68;;;;;;;20.04;36.90;100680.06;4992434;28;20133;-67
2021/04/21 06:23:11;;;;;;;9.00;8.18;;;;;;;17.49;41.20;100685.50;4981854;28;20034;-67
2021/04/21 06:25:42;;;;;;;10.00;8.10;;;;;;;19.46;37.88;100680.94;5011815;28;20077;-68
2021/04/21 06:28:20;;;;;;;9.88;8.90;;;;;;;21.79;32.97;100683.53;5012058;28;20036;-68
2021/04/21 06:30:49;;;;;;;9.25;8.35;;;;;;;19.86;37.08;100683.53;4994182;28;20041;-68
2021/04/21 06:33:15;;;;;;;8.30;7.50;;;;;;;18.50;39.07;100690.47;4994459;28;20057;-68
2021/04/21 06:35:42;;;;;;;9.25;8.25;;;;;;;23.16;32.89;100680.03;5011654;28;20022;-67
2021/04/21 06:38:08;;;;;;;8.40;6.55;;;;;;;26.43;28.29;100685.75;4995926;28;20042;-68
2021/04/21 06:40:36;;;;;;;7.68;6.30;;;;;;;25.54;27.53;100675.16;4974925;28;20054;-68
2021/04/21 06:43:02;;;;;;;8.77;6.45;;;;;;;26.41;26.75;100679.59;4974997;28;20519;-69
2021/04/21 06:45:31;;;;;;;8.27;6.93;;;;;;;28.92;23.98;100667.56;4974705;28;20429;-69
2021/04/21 06:47:57;;;;;;;10.43;7.45;;;;;;;27.94;23.84;100675.75;4974815;28;20117;-69
2021/04/21 06:50:34;;;;;;;9.20;7.07;;;;;;;27.05;24.46;100676.56;4975369;28;20041;-69
2021/04/21 06:53:04;;;;;;;8.43;6.93;;;;;;;28.74;23.98;100672.69;5015756;28;20022;-69
2021/04/21 06:55:30;;;;;;;8.40;6.05;;;;;;;28.20;23.96;100680.00;4997970;28;20030;-69
2021/04/21 06:57:56;;;;;;;7.25;6.40;;;;;;;27.66;24.04;100672.63;5015660;28;20083;-69
2021/04/21 07:00:24;;;;;;;8.23;6.65;;;;;;;28.00;24.08;100679.78;5013984;28;20070;-69
2021/04/21 07:02:52;;;;;;;8.60;6.35;;;;;;;28.41;22.03;100682.75;4997984;28;20034;-69
2021/04/21 07:05:36;;;;;;;7.00;6.20;;;;;;;27.70;23.89;100684.09;4997896;28;20056;-69
2021/04/21 07:08:06;;;;;;;7.90;6.30;;;;;;;28.31;21.90;100679.97;4998128;28;20026;-69
2021/04/21 07:10:52;;;;;;;7.50;5.93;;;;;;;30.93;20.87;100680.31;4998131;28;20310;-69
2021/04/21 07:13:30;;;;;;;9.32;6.13;;;;;;;29.21;20.91;100690.41;4997846;28;20041;-69
2021/04/21 07:15:59;;;;;;;6.15;5.55;;;;;;;30.72;20.32;100684.06;4983180;28;20030;-69
2021/04/21 07:18:29;;;;;;;11.52;6.25;;;;;;;32.05;18.67;100685.81;4995643;28;20031;-69
2021/04/21 07:20:59;;;;;;;7.45;5.90;;;;;;;29.99;20.99;100685.34;4978288;28;20029;-69
2021/04/21 07:23:25;;;;;;;9.32;7.07;;;;;;;28.93;23.39;100684.69;4978158;28;20022;-69
2021/04/21 07:25:51;;;;;;;9.55;6.45;;;;;;;31.17;20.70;100690.69;4977809;28;20032;-69
2021/04/21 07:28:17;;;;;;;6.05;5.45;;;;;;;30.37;21.25;100686.41;4978107;28;20030;-69
2021/04/21 07:30:43;;;;;;;8.57;6.00;;;;;;;28.13;24.20;100676.91;4976069;28;20085;-69
2021/04/21 07:33:09;;;;;;;6.88;5.88;;;;;;;28.39;22.68;100679.31;4974841;28;20113;-69
2021/04/21 07:35:34;;;;;;;10.50;6.38;;;;;;;30.21;20.98;100678.84;4974591;28;20058;-69
2021/04/21 07:38:00;;;;;;;7.20;5.80;;;;;;;31.16;19.45;100682.66;4975727;28;20054;-69
2021/04/21 07:40:36;;;;;;;5.85;5.25;;;;;;;31.48;19.49;100675.97;4974557;28;20022;-70
2021/04/21 07:43:09;;;;;;;6.97;6.20;;;;;;;32.81;19.43;100679.97;4986710;28;20029;-69
2021/04/21 07:45:57;;;;;;;5.97;5.38;;;;;;;29.83;21.35;100676.75;4997506;28;20091;-68
2021/04/21 07:48:35;;;;;;;6.40;5.57;;;;;;;31.86;19.72;100682.19;5014745;28;20025;-68
2021/04/21 07:51:26;;;;;;;7.00;6.22;;;;;;;33.10;17.77;100678.78;5014618;28;20385;-69
2021/04/21 07:54:01;;;;;;;7.68;6.32;;;;;;;33.36;17.16;100674.31;5014517;28;20036;-68
2021/04/21 07:56:33;;;;;;;8.38;5.07;;;;;;;32.29;19.76;100681.59;5013952;28;20466;-69
2021/04/21 07:59:12;;;;;;;6.13;5.50;;;;;;;31.27;19.71;100674.31;4959289;28;20477;-69
2021/04/21 08:01:37;;;;;;;6.47;5.88;;;;;;;31.11;20.92;100675.81;4965113;28;20066;-69
2021/04/21 08:04:20;;;;;;;7.22;5.38;;;;;;;31.16;20.91;100683.53;4994048;28;20455;-69
2021/04/21 08:06:47;;;;;;;6.70;6.03;;;;;;;30.57;21.44;100681.78;4977121;28;20045;-69
2021/04/21 08:09:12;;;;;;;9.40;5.88;;;;;;;31.87;21.12;100681.16;4977601;28;20022;-69
2021/04/21 08:11:38;;;;;;;7.72;5.75;;;;;;;32.47;18.74;100686.22;4977263;28;20371;-69
2021/04/21 08:14:03;;;;;;;6.10;5.53;;;;;;;31.47;19.86;100687.84;5005683;28;20124;-69
2021/04/21 08:16:31;;;;;;;6.28;5.50;;;;;;;34.05;17.09;100681.53;4980344;28;20037;-69
2021/04/21 08:19:00;;;;;;;7.35;5.82;;;;;;;34.02;17.15;100684.59;5014133;28;20408;-69
2021/04/21 08:21:40;;;;;;;7.27;6.00;;;;;;;36.87;16.36;100681.34;4996705;28;20025;-69
2021/04/21 08:24:07;;;;;;;7.28;6.20;;;;;;;31.73;18.31;100687.16;5013900;28;20028;-70
2021/04/21 08:26:32;;;;;;;7.65;5.80;;;;;;;32.69;19.31;100679.38;5013637;28;20076;-70
2021/04/21 08:28:59;;;;;;;7.70;5.15;;;;;;;33.53;18.02;100689.75;4995660;28;20119;-70
2021/04/21 08:31:25;;;;;;;7.22;5.10;;;;;;;31.31;18.72;100680.34;4999307;28;20029;-70
2021/04/21 08:33:51;;;;;;;7.25;4.78;;;;;;;32.23;17.83;100676.75;5014045;28;20550;-70
2021/04/21 08:36:16;;;;;;;5.60;4.90;;;;;;;32.58;17.42;100683.25;5013157;28;20079;-70
2021/04/21 08:38:41;;;;;;;7.65;5.88;;;;;;;32.31;18.47;100682.28;4996229;28;20022;-69
2021/04/21 08:41:07;;;;;;;6.65;5.90;;;;;;;31.10;19.88;100678.69;5013737;28;20465;-69
2021/04/21 08:43:36;;;;;;;6.95;5.90;;;;;;;33.21;17.41;100687.75;5013724;28;20084;-70
2021/04/21 08:46:02;;;;;;;7.47;5.22;;;;;;;32.89;18.57;100679.16;4987153;28;20061;-70
2021/04/21 08:48:28;;;;;;;5.80;4.68;;;;;;;33.09;17.46;100685.28;4994051;28;20057;-69
2021/04/21 08:50:53;;;;;;;6.68;6.00;;;;;;;33.49;18.32;100701.16;4960410;28;20389;-70
2021/04/21 08:53:20;;;;;;;6.75;6.03;;;;;;;32.16;18.83;100694.75;4976329;28;20041;-70
2021/04/21 08:55:48;;;;;;;8.00;6.22;;;;;;;34.58;17.38;100689.44;4976200;28;20547;-69
2021/04/21 08:58:13;;;;;;;5.72;5.20;;;;;;;33.20;16.66;100694.22;4976457;28;20038;-70
2021/04/21 09:00:40;;;;;;;5.50;5.05;;;;;;;33.65;17.19;100693.03;4976377;28;20019;-70
2021/04/21 09:03:07;;;;;;;5.60;5.10;;;;;;;34.35;16.20;100692.88;4977598;28;20040;-69
2021/04/21 09:05:32;;;;;;;7.10;5.13;;;;;;;32.92;16.92;100697.97;4974836;28;20022;-70
2021/04/21 09:07:59;;;;;;;5.38;4.72;;;;;;;35.09;14.78;100691.06;4994002;28;20038;-70
2021/04/21 09:10:24;;;;;;;6.60;5.60;;;;;;;34.23;16.18;100696.94;4976227;28;20034;-70
2021/04/21 09:12:49;;;;;;;6.78;4.82;;;;;;;34.80;16.12;100700.72;4976279;28;20462;-70
2021/04/21 09:15:16;;;;;;;7.35;5.03;;;;;;;33.03;16.21;100699.59;4992987;28;20057;-70
2021/04/21 09:17:46;;;;;;;8.02;5.60;;;;;;;34.00;15.80;100689.38;4993390;28;20060;-69
2021/04/21 09:20:16;;;;;;;5.53;5.03;;;;;;;34.34;15.53;100691.13;4994381;28;20041;-70
2021/04/21 09:23:01;;;;;;;5.00;4.53;;;;;;;32.64;16.68;100690.78;4975923;28;20034;-69
2021/04/21 09:25:37;;;;;;;6.13;5.63;;;;;;;32.81;17.16;100696.34;4975806;28;20118;-69
2021/04/21 09:28:03;;;;;;;5.57;5.07;;;;;;;31.76;17.13;100692.28;4975900;28;20531;-68
2021/04/21 09:30:29;;;;;;;8.65;5.47;;;;;;;33.57;17.08;100689.47;4975877;28;20030;-69
2021/04/21 09:32:56;;;;;;;8.35;6.15;;;;;;;35.10;15.57;100687.28;4975785;28;20026;-69
2021/04/21 09:35:26;;;;;;;7.65;6.90;;;;;;;33.88;15.26;100689.69;4994003;28;20033;-69
2021/04/21 09:38:01;;;;;;;8.43;6.25;;;;;;;33.28;16.52;100683.34;4993038;28;20029;-69
2021/04/21 09:40:57;;;;;;;6.32;5.22;;;;;;;31.84;16.71;100689.66;4975840;28;20079;-69
2021/04/21 09:43:25;;;;;;;9.75;5.38;;;;;;;32.88;16.73;100685.66;4976593;28;20122;-69
2021/04/21 09:45:56;;;;;;;6.80;5.40;;;;;;;34.59;16.20;100696.59;4975368;28;20050;-69
2021/04/21 09:48:27;;;;;;;8.25;6.22;;;;;;;32.40;15.48;100680.50;4975565;28;20508;-70
2021/04/21 09:51:04;;;;;;;9.18;6.05;;;;;;;33.28;17.34;100688.81;4992771;28;20041;-69
2021/04/21 09:53:32;;;;;;;6.93;6.25;;;;;;;32.35;17.80;100688.31;4993751;28;20054;-70
2021/04/21 09:56:09;;;;;;;7.40;5.68;;;;;;;35.86;13.90;100685.94;4992112;28;20030;-70
2021/04/21 09:58:40;;;;;;;6.43;5.82;;;;;;;30.79;19.42;100684.38;4974676;28;20084;-69
2021/04/21 10:01:32;;;;;;;6.75;6.20;;;;;;;30.86;18.78;100677.34;4992876;28;20014;-70
2021/04/21 10:04:06;;;;;;;6.65;5.90;;;;;;;30.95;18.33;100679.19;4976506;28;20027;-70
2021/04/21 10:06:32;;;;;;;6.63;5.90;;;;;;;32.91;16.92;100682.59;4992255;28;20026;-70
2021/04/21 10:08:57;;;;;;;7.28;6.30;;;;;;;35.06;15.74;100674.97;4975559;28;20061;-70
2021/04/21 10:11:23;;;;;;;6.53;5.93;;;;;;;32.82;17.76;100676.22;4992579;28;20062;-70
2021/04/21 10:13:52;;;;;;;6.72;6.03;;;;;;;33.59;16.29;100674.59;4975232;28;20088;-70
2021/04/21 10:16:17;;;;;;;6.40;5.78;;;;;;;32.72;16.75;100679.06;4975183;28;20028;-70
2021/04/21 10:18:44;;;;;;;6.57;5.90;;;;;;;31.83;17.29;100674.31;4982091;28;20030;-70
2021/04/21 10:21:12;;;;;;;6.68;6.05;;;;;;;32.91;16.28;100671.69;4994524;28;20072;-71
2021/04/21 10:23:38;;;;;;;7.18;6.43;;;;;;;35.21;15.48;100666.06;4994808;28;20021;-70
2021/04/21 10:26:05;;;;;;;6.72;6.05;;;;;;;32.46;16.16;100674.44;4993618;28;20026;-70
2021/04/21 10:28:34;;;;;;;6.00;5.50;;;;;;;34.00;15.37;100662.00;4994510;28;20042;-70
2021/04/21 10:31:05;;;;;;;5.97;5.18;;;;;;;33.52;15.65;100663.44;4994451;28;20449;-70
2021/04/21 10:33:30;;;;;;;8.90;5.65;;;;;;;34.00;14.77;100662.00;4994378;28;20049;-70
2021/04/21 10:35:56;;;;;;;5.60;5.05;;;;;;;33.07;15.23;100664.63;5009981;28;20060;-70
2021/04/21 10:38:24;;;;;;;5.15;4.60;;;;;;;32.95;14.69;100662.16;5011629;28;20026;-70
2021/04/21 10:40:49;;;;;;;5.35;4.85;;;;;;;33.02;16.41;100652.31;5012034;28;20631;-71
2021/04/21 10:43:14;;;;;;;5.85;5.30;;;;;;;33.04;15.15;100663.06;4994472;28;20022;-70
2021/04/21 10:45:51;;;;;;;7.45;5.63;;;;;;;32.09;15.72;100657.22;4994079;28;20053;-70
2021/04/21 10:48:39;;;;;;;5.22;4.82;;;;;;;33.41;15.03;100656.38;5012088;28;20469;-70
2021/04/21 10:51:37;;;;;;;5.93;5.30;;;;;;;32.84;15.20;100655.06;5010208;28;20446;-70
2021/04/21 10:54:04;;;;;;;10.88;4.55;;;;;;;32.88;15.40;100653.72;4994433;28;20021;-70
2021/04/21 10:56:30;;;;;;;5.78;4.10;;;;;;;34.63;15.47;100661.50;5011383;28;20038;-70
2021/04/21 10:58:57;;;;;;;10.02;5.35;;;;;;;32.89;16.42;100649.13;4994364;28;20054;-70
2021/04/21 11:01:34;;;;;;;5.93;5.28;;;;;;;32.32;16.79;100651.28;4994205;28;20097;-70
2021/04/21 11:03:59;;;;;;;7.45;5.53;;;;;;;32.64;16.75;100649.81;4994066;28;20473;-69
2021/04/21 11:06:45;;;;;;;6.20;4.80;;;;;;;33.43;15.54;100647.19;4993985;28;20030;-69
2021/04/21 11:09:11;;;;;;;6.57;4.53;;;;;;;35.68;13.81;100640.47;4992930;28;20036;-69
2021/04/21 11:11:40;;;;;;;5.72;4.20;;;;;;;33.06;14.41;100639.19;4994052;28;20492;-69
2021/04/21 11:14:06;;;;;;;8.38;5.32;;;;;;;33.96;15.19;100647.84;5011730;28;20049;-69
2021/04/21 11:16:31;;;;;;;5.60;5.03;;;;;;;32.19;15.97;100645.34;4993804;28;20481;-70
2021/04/21 11:19:18;;;;;;;5.47;4.97;;;;;;;32.63;16.62;100637.19;5011450;28;20037;-69
2021/04/21 11:21:45;;;;;;;5.85;4.40;;;;;;;32.59;16.03;100624.91;5011604;28;20109;-69
2021/04/21 11:24:11;;;;;;;5.57;5.07;;;;;;;33.32;15.76;100640.13;4993841;28;20077;-70
2021/04/21 11:26:44;;;;;;;5.05;4.47;;;;;;;32.02;15.60;100631.59;4992321;28;20034;-70
2021/04/21 11:29:24;;;;;;;6.15;4.03;;;;;;;32.62;16.54;100632.78;4994101;28;20026;-70
2021/04/21 11:31:50;;;;;;;8.32;5.30;;;;;;;33.41;15.22;100623.59;5011328;28;20373;-70
2021/04/21 11:34:30;;;;;;;8.32;4.88;;;;;;;33.15;16.96;100624.53;5011410;28;20021;-70
2021/04/21 11:37:09;;;;;;;6.85;4.68;;;;;;;31.33;18.19;100622.00;4978813;28;20366;-70
2021/04/21 11:39:40;;;;;;;7.53;5.38;;;;;;;32.89;15.55;100622.69;4997449;28;20026;-70
2021/04/21 11:42:41;;;;;;;8.07;4.80;;;;;;;34.30;14.19;100627.69;5013110;28;20026;-69
2021/04/21 11:45:22;;;;;;;;;;;;;;;32.60;15.48;100631.19;4997588;28;20052;-69